sensor_id;sensor_type;location;lat;lon;timestamp;P1;durP1;ratioP1;P2;durP2;ratioP2
6999;SDS011;3540;53.242;10.408;2023-09-18T00:00:47;7.83;;;4.63;;
6999;SDS011;3540;53.242;10.408;2023-09-18T00:03:19;4.93;;;4.53;;
6999;SDS011;3540;53.242;10.408;2023-09-18T00:05:48;6.20;;;5.13;;
6999;SDS011;3540;53.242;10.408;2023-09-18T00:08:14;6.90;;;4.67;;
6999;SDS011;3540;53.242;10.408;2023-09-18T00:10:41;6.57;;;5.03;;
6999;SDS011;3540;53.242;10.408;2023-09-18T00:13:07;5.10;;;4.60;;
6999;SDS011;3540;53.242;10.408;2023-09-18T00:15:32;6.53;;;4.67;;
6999;SDS011;3540;53.242;10.408;2023-09-18T00:17:58;8.10;;;4.70;;
6999;SDS011;3540;53.242;10.408;2023-09-18T00:20:24;5.73;;;5.00;;
6999;SDS011;3540;53.242;10.408;2023-09-18T00:22:53;6.57;;;4.60;;
6999;SDS011;3540;53.242;10.408;2023-09-18T00:25:20;5.33;;;4.83;;
6999;SDS011;3540;53.242;10.408;2023-09-18T00:27:46;5.47;;;4.57;;
6999;SDS011;3540;53.242;10.408;2023-09-18T00:30:12;5.23;;;4.73;;
6999;SDS011;3540;53.242;10.408;2023-09-18T00:32:38;5.47;;;4.97;;
6999;SDS011;3540;53.242;10.408;2023-09-18T00:35:03;8.00;;;5.10;;
6999;SDS011;3540;53.242;10.408;2023-09-18T00:37:29;5.17;;;4.67;;
6999;SDS011;3540;53.242;10.408;2023-09-18T00:39:55;5.47;;;4.97;;
6999;SDS011;3540;53.242;10.408;2023-09-18T00:42:20;6.63;;;4.90;;
6999;SDS011;3540;53.242;10.408;2023-09-18T00:44:47;5.27;;;4.77;;
6999;SDS011;3540;53.242;10.408;2023-09-18T00:47:14;5.87;;;5.37;;
6999;SDS011;3540;53.242;10.408;2023-09-18T00:49:41;5.67;;;4.90;;
6999;SDS011;3540;53.242;10.408;2023-09-18T00:52:10;7.47;;;5.03;;
6999;SDS011;3540;53.242;10.408;2023-09-18T00:54:37;6.70;;;5.10;;
6999;SDS011;3540;53.242;10.408;2023-09-18T00:57:04;5.33;;;4.83;;
6999;SDS011;3540;53.242;10.408;2023-09-18T00:59:30;8.23;;;5.10;;
6999;SDS011;3540;53.242;10.408;2023-09-18T01:01:59;5.13;;;4.73;;
6999;SDS011;3540;53.242;10.408;2023-09-18T01:04:25;5.17;;;4.67;;
6999;SDS011;3540;53.242;10.408;2023-09-18T01:06:53;5.40;;;4.90;;
6999;SDS011;3540;53.242;10.408;2023-09-18T01:09:21;6.20;;;4.87;;
6999;SDS011;3540;53.242;10.408;2023-09-18T01:11:50;5.20;;;4.70;;
6999;SDS011;3540;53.242;10.408;2023-09-18T01:14:44;5.60;;;5.10;;
6999;SDS011;3540;53.242;10.408;2023-09-18T01:17:12;9.97;;;4.60;;
6999;SDS011;3540;53.242;10.408;2023-09-18T01:19:41;4.90;;;4.40;;
6999;SDS011;3540;53.242;10.408;2023-09-18T01:22:12;5.87;;;5.30;;
6999;SDS011;3540;53.242;10.408;2023-09-18T01:24:43;6.17;;;4.80;;
6999;SDS011;3540;53.242;10.408;2023-09-18T01:27:11;5.60;;;5.10;;
6999;SDS011;3540;53.242;10.408;2023-09-18T01:29:41;5.23;;;4.73;;
6999;SDS011;3540;53.242;10.408;2023-09-18T01:32:07;5.40;;;4.87;;
6999;SDS011;3540;53.242;10.408;2023-09-18T01:34:34;6.73;;;5.00;;
6999;SDS011;3540;53.242;10.408;2023-09-18T01:37:11;4.77;;;4.37;;
6999;SDS011;3540;53.242;10.408;2023-09-18T01:39:39;5.37;;;4.87;;
6999;SDS011;3540;53.242;10.408;2023-09-18T01:42:05;5.33;;;4.83;;
6999;SDS011;3540;53.242;10.408;2023-09-18T01:44:32;5.67;;;4.70;;
6999;SDS011;3540;53.242;10.408;2023-09-18T01:46:59;5.40;;;4.90;;
6999;SDS011;3540;53.242;10.408;2023-09-18T01:49:32;5.90;;;5.30;;
6999;SDS011;3540;53.242;10.408;2023-09-18T01:52:02;6.23;;;5.30;;
6999;SDS011;3540;53.242;10.408;2023-09-18T01:54:29;5.60;;;5.00;;
6999;SDS011;3540;53.242;10.408;2023-09-18T01:56:55;5.47;;;4.97;;
6999;SDS011;3540;53.242;10.408;2023-09-18T01:59:21;6.10;;;5.20;;
6999;SDS011;3540;53.242;10.408;2023-09-18T02:01:48;5.90;;;5.27;;
6999;SDS011;3540;53.242;10.408;2023-09-18T02:04:14;5.87;;;5.37;;
6999;SDS011;3540;53.242;10.408;2023-09-18T02:06:40;5.90;;;5.13;;
6999;SDS011;3540;53.242;10.408;2023-09-18T02:09:06;5.80;;;5.13;;
6999;SDS011;3540;53.242;10.408;2023-09-18T02:11:39;5.43;;;4.93;;
6999;SDS011;3540;53.242;10.408;2023-09-18T02:14:06;5.50;;;5.00;;
6999;SDS011;3540;53.242;10.408;2023-09-18T02:16:36;5.70;;;5.20;;
6999;SDS011;3540;53.242;10.408;2023-09-18T02:19:06;5.80;;;5.30;;
6999;SDS011;3540;53.242;10.408;2023-09-18T02:21:32;5.93;;;5.33;;
6999;SDS011;3540;53.242;10.408;2023-09-18T02:23:57;5.57;;;5.07;;
6999;SDS011;3540;53.242;10.408;2023-09-18T02:26:24;5.30;;;4.80;;
6999;SDS011;3540;53.242;10.408;2023-09-18T02:28:53;5.70;;;5.10;;
6999;SDS011;3540;53.242;10.408;2023-09-18T02:31:20;5.77;;;5.17;;
6999;SDS011;3540;53.242;10.408;2023-09-18T02:33:46;6.10;;;5.50;;
6999;SDS011;3540;53.242;10.408;2023-09-18T02:36:12;8.13;;;5.60;;
6999;SDS011;3540;53.242;10.408;2023-09-18T02:38:38;6.00;;;5.50;;
6999;SDS011;3540;53.242;10.408;2023-09-18T02:41:04;5.90;;;5.27;;
6999;SDS011;3540;53.242;10.408;2023-09-18T02:43:30;7.83;;;5.30;;
6999;SDS011;3540;53.242;10.408;2023-09-18T02:45:55;6.67;;;5.83;;
6999;SDS011;3540;53.242;10.408;2023-09-18T02:48:21;6.10;;;5.50;;
6999;SDS011;3540;53.242;10.408;2023-09-18T02:50:47;8.37;;;5.53;;
6999;SDS011;3540;53.242;10.408;2023-09-18T02:53:20;5.83;;;5.30;;
6999;SDS011;3540;53.242;10.408;2023-09-18T02:55:48;9.00;;;5.60;;
6999;SDS011;3540;53.242;10.408;2023-09-18T02:58:15;8.17;;;5.90;;
6999;SDS011;3540;53.242;10.408;2023-09-18T03:00:46;5.30;;;4.80;;
6999;SDS011;3540;53.242;10.408;2023-09-18T03:03:13;6.10;;;5.50;;
6999;SDS011;3540;53.242;10.408;2023-09-18T03:05:40;5.70;;;5.10;;
6999;SDS011;3540;53.242;10.408;2023-09-18T03:08:06;7.97;;;5.57;;
6999;SDS011;3540;53.242;10.408;2023-09-18T03:10:33;6.17;;;5.57;;
6999;SDS011;3540;53.242;10.408;2023-09-18T03:13:02;5.77;;;5.27;;
6999;SDS011;3540;53.242;10.408;2023-09-18T03:15:29;5.83;;;5.33;;
6999;SDS011;3540;53.242;10.408;2023-09-18T03:17:55;6.10;;;5.50;;
6999;SDS011;3540;53.242;10.408;2023-09-18T03:20:25;5.60;;;5.10;;
6999;SDS011;3540;53.242;10.408;2023-09-18T03:22:52;6.00;;;5.50;;
6999;SDS011;3540;53.242;10.408;2023-09-18T03:25:22;5.97;;;5.47;;
6999;SDS011;3540;53.242;10.408;2023-09-18T03:27:50;8.77;;;5.30;;
6999;SDS011;3540;53.242;10.408;2023-09-18T03:30:16;9.40;;;5.37;;
6999;SDS011;3540;53.242;10.408;2023-09-18T03:32:43;7.03;;;5.23;;
6999;SDS011;3540;53.242;10.408;2023-09-18T03:35:10;6.30;;;5.63;;
6999;SDS011;3540;53.242;10.408;2023-09-18T03:37:46;6.20;;;5.60;;
6999;SDS011;3540;53.242;10.408;2023-09-18T03:40:12;8.80;;;5.73;;
6999;SDS011;3540;53.242;10.408;2023-09-18T03:42:38;6.20;;;5.37;;
6999;SDS011;3540;53.242;10.408;2023-09-18T03:45:07;6.00;;;5.40;;
6999;SDS011;3540;53.242;10.408;2023-09-18T03:47:36;6.10;;;5.53;;
6999;SDS011;3540;53.242;10.408;2023-09-18T03:50:04;5.70;;;5.20;;
6999;SDS011;3540;53.242;10.408;2023-09-18T03:52:31;7.93;;;5.70;;
6999;SDS011;3540;53.242;10.408;2023-09-18T03:54:56;6.77;;;6.10;;
6999;SDS011;3540;53.242;10.408;2023-09-18T03:57:23;6.00;;;5.50;;
6999;SDS011;3540;53.242;10.408;2023-09-18T03:59:49;9.53;;;6.10;;
6999;SDS011;3540;53.242;10.408;2023-09-18T04:02:15;6.73;;;5.73;;
6999;SDS011;3540;53.242;10.408;2023-09-18T04:04:41;9.47;;;5.53;;
6999;SDS011;3540;53.242;10.408;2023-09-18T04:07:06;5.43;;;4.93;;
6999;SDS011;3540;53.242;10.408;2023-09-18T04:09:32;6.27;;;5.67;;
6999;SDS011;3540;53.242;10.408;2023-09-18T04:12:01;6.87;;;6.17;;
6999;SDS011;3540;53.242;10.408;2023-09-18T04:14:29;6.23;;;5.33;;
6999;SDS011;3540;53.242;10.408;2023-09-18T04:16:54;6.67;;;5.90;;
6999;SDS011;3540;53.242;10.408;2023-09-18T04:19:20;6.53;;;5.67;;
6999;SDS011;3540;53.242;10.408;2023-09-18T04:21:46;7.53;;;5.97;;
6999;SDS011;3540;53.242;10.408;2023-09-18T04:24:11;9.40;;;5.80;;
6999;SDS011;3540;53.242;10.408;2023-09-18T04:26:37;6.60;;;6.00;;
6999;SDS011;3540;53.242;10.408;2023-09-18T04:29:03;6.00;;;5.40;;
6999;SDS011;3540;53.242;10.408;2023-09-18T04:31:28;6.70;;;6.00;;
6999;SDS011;3540;53.242;10.408;2023-09-18T04:33:55;6.53;;;5.87;;
6999;SDS011;3540;53.242;10.408;2023-09-18T04:36:21;6.23;;;5.63;;
6999;SDS011;3540;53.242;10.408;2023-09-18T04:38:46;6.60;;;6.00;;
6999;SDS011;3540;53.242;10.408;2023-09-18T04:41:12;6.50;;;5.90;;
6999;SDS011;3540;53.242;10.408;2023-09-18T04:43:39;6.00;;;5.50;;
6999;SDS011;3540;53.242;10.408;2023-09-18T04:46:05;6.57;;;5.97;;
6999;SDS011;3540;53.242;10.408;2023-09-18T04:48:31;7.90;;;5.77;;
6999;SDS011;3540;53.242;10.408;2023-09-18T04:50:58;8.70;;;5.70;;
6999;SDS011;3540;53.242;10.408;2023-09-18T04:53:24;6.40;;;5.90;;
6999;SDS011;3540;53.242;10.408;2023-09-18T04:55:50;7.53;;;5.83;;
6999;SDS011;3540;53.242;10.408;2023-09-18T04:58:16;9.83;;;5.23;;
6999;SDS011;3540;53.242;10.408;2023-09-18T05:00:42;7.17;;;5.83;;
6999;SDS011;3540;53.242;10.408;2023-09-18T05:03:09;7.27;;;5.50;;
6999;SDS011;3540;53.242;10.408;2023-09-18T05:05:35;7.30;;;6.03;;
6999;SDS011;3540;53.242;10.408;2023-09-18T05:08:01;6.47;;;5.87;;
6999;SDS011;3540;53.242;10.408;2023-09-18T05:10:29;7.27;;;5.90;;
6999;SDS011;3540;53.242;10.408;2023-09-18T05:12:55;6.30;;;5.70;;
6999;SDS011;3540;53.242;10.408;2023-09-18T05:15:26;9.13;;;5.87;;
6999;SDS011;3540;53.242;10.408;2023-09-18T05:17:54;7.67;;;5.70;;
6999;SDS011;3540;53.242;10.408;2023-09-18T05:20:22;6.37;;;5.83;;
6999;SDS011;3540;53.242;10.408;2023-09-18T05:22:49;6.47;;;5.80;;
6999;SDS011;3540;53.242;10.408;2023-09-18T05:25:18;7.37;;;5.40;;
6999;SDS011;3540;53.242;10.408;2023-09-18T05:27:44;5.90;;;5.30;;
6999;SDS011;3540;53.242;10.408;2023-09-18T05:30:10;6.00;;;5.40;;
6999;SDS011;3540;53.242;10.408;2023-09-18T05:32:38;5.67;;;5.13;;
6999;SDS011;3540;53.242;10.408;2023-09-18T05:35:04;6.00;;;5.50;;
6999;SDS011;3540;53.242;10.408;2023-09-18T05:37:31;6.00;;;5.40;;
6999;SDS011;3540;53.242;10.408;2023-09-18T05:39:57;6.10;;;5.50;;
6999;SDS011;3540;53.242;10.408;2023-09-18T05:42:23;5.93;;;5.23;;
6999;SDS011;3540;53.242;10.408;2023-09-18T05:44:49;6.20;;;5.70;;
6999;SDS011;3540;53.242;10.408;2023-09-18T05:47:15;5.87;;;5.30;;
6999;SDS011;3540;53.242;10.408;2023-09-18T05:49:40;7.03;;;5.60;;
6999;SDS011;3540;53.242;10.408;2023-09-18T05:52:06;8.50;;;5.40;;
6999;SDS011;3540;53.242;10.408;2023-09-18T05:54:31;5.97;;;5.40;;
6999;SDS011;3540;53.242;10.408;2023-09-18T05:56:57;5.77;;;5.17;;
6999;SDS011;3540;53.242;10.408;2023-09-18T05:59:23;5.67;;;5.17;;
6999;SDS011;3540;53.242;10.408;2023-09-18T06:01:48;5.47;;;4.97;;
6999;SDS011;3540;53.242;10.408;2023-09-18T06:04:14;5.73;;;5.10;;
6999;SDS011;3540;53.242;10.408;2023-09-18T06:06:41;5.93;;;4.93;;
6999;SDS011;3540;53.242;10.408;2023-09-18T06:09:07;6.13;;;5.00;;
6999;SDS011;3540;53.242;10.408;2023-09-18T06:11:33;5.50;;;4.73;;
6999;SDS011;3540;53.242;10.408;2023-09-18T06:13:59;5.73;;;5.10;;
6999;SDS011;3540;53.242;10.408;2023-09-18T06:16:25;5.57;;;5.07;;
6999;SDS011;3540;53.242;10.408;2023-09-18T06:18:51;5.67;;;5.00;;
6999;SDS011;3540;53.242;10.408;2023-09-18T06:21:16;5.70;;;5.20;;
6999;SDS011;3540;53.242;10.408;2023-09-18T06:23:42;4.93;;;4.53;;
6999;SDS011;3540;53.242;10.408;2023-09-18T06:26:07;7.83;;;5.00;;
6999;SDS011;3540;53.242;10.408;2023-09-18T06:28:33;9.93;;;5.27;;
6999;SDS011;3540;53.242;10.408;2023-09-18T06:30:59;7.07;;;4.67;;
6999;SDS011;3540;53.242;10.408;2023-09-18T06:33:24;6.37;;;4.60;;
6999;SDS011;3540;53.242;10.408;2023-09-18T06:35:50;5.30;;;4.80;;
6999;SDS011;3540;53.242;10.408;2023-09-18T06:38:17;5.30;;;4.80;;
6999;SDS011;3540;53.242;10.408;2023-09-18T06:40:42;5.13;;;4.70;;
6999;SDS011;3540;53.242;10.408;2023-09-18T06:43:08;8.80;;;4.53;;
6999;SDS011;3540;53.242;10.408;2023-09-18T06:45:34;5.13;;;4.63;;
6999;SDS011;3540;53.242;10.408;2023-09-18T06:48:02;5.70;;;5.10;;
6999;SDS011;3540;53.242;10.408;2023-09-18T06:50:28;5.93;;;4.60;;
6999;SDS011;3540;53.242;10.408;2023-09-18T06:52:54;6.70;;;5.03;;
6999;SDS011;3540;53.242;10.408;2023-09-18T06:55:19;5.20;;;4.70;;
6999;SDS011;3540;53.242;10.408;2023-09-18T06:57:45;7.63;;;4.57;;
6999;SDS011;3540;53.242;10.408;2023-09-18T07:00:12;5.50;;;5.00;;
6999;SDS011;3540;53.242;10.408;2023-09-18T07:02:40;5.07;;;4.67;;
6999;SDS011;3540;53.242;10.408;2023-09-18T07:05:06;6.60;;;4.60;;
6999;SDS011;3540;53.242;10.408;2023-09-18T07:07:31;4.73;;;4.33;;
6999;SDS011;3540;53.242;10.408;2023-09-18T07:09:57;6.00;;;4.60;;
6999;SDS011;3540;53.242;10.408;2023-09-18T07:12:23;5.13;;;4.63;;
6999;SDS011;3540;53.242;10.408;2023-09-18T07:14:48;5.30;;;4.80;;
6999;SDS011;3540;53.242;10.408;2023-09-18T07:17:14;5.27;;;4.60;;
6999;SDS011;3540;53.242;10.408;2023-09-18T07:19:40;5.47;;;4.50;;
6999;SDS011;3540;53.242;10.408;2023-09-18T07:22:06;7.23;;;4.67;;
6999;SDS011;3540;53.242;10.408;2023-09-18T07:24:32;5.30;;;4.50;;
6999;SDS011;3540;53.242;10.408;2023-09-18T07:26:57;8.93;;;4.70;;
6999;SDS011;3540;53.242;10.408;2023-09-18T07:29:23;6.13;;;4.40;;
6999;SDS011;3540;53.242;10.408;2023-09-18T07:31:50;4.80;;;4.40;;
6999;SDS011;3540;53.242;10.408;2023-09-18T07:34:16;6.30;;;4.55;;
6999;SDS011;3540;53.242;10.408;2023-09-18T07:36:42;7.00;;;4.80;;
6999;SDS011;3540;53.242;10.408;2023-09-18T07:39:09;4.70;;;4.30;;
6999;SDS011;3540;53.242;10.408;2023-09-18T07:41:36;6.00;;;4.25;;
6999;SDS011;3540;53.242;10.408;2023-09-18T07:44:02;5.60;;;4.50;;
6999;SDS011;3540;53.242;10.408;2023-09-18T07:46:28;4.63;;;4.22;;
6999;SDS011;3540;53.242;10.408;2023-09-18T07:48:54;6.57;;;4.80;;
6999;SDS011;3540;53.242;10.408;2023-09-18T07:51:20;5.22;;;4.07;;
6999;SDS011;3540;53.242;10.408;2023-09-18T07:53:46;4.80;;;4.28;;
6999;SDS011;3540;53.242;10.408;2023-09-18T07:56:11;5.47;;;4.07;;
6999;SDS011;3540;53.242;10.408;2023-09-18T07:58:37;4.68;;;4.25;;
6999;SDS011;3540;53.242;10.408;2023-09-18T08:01:04;6.55;;;4.00;;
6999;SDS011;3540;53.242;10.408;2023-09-18T08:03:30;6.55;;;4.00;;
6999;SDS011;3540;53.242;10.408;2023-09-18T08:05:57;5.03;;;4.20;;
6999;SDS011;3540;53.242;10.408;2023-09-18T08:08:22;4.43;;;4.03;;
6999;SDS011;3540;53.242;10.408;2023-09-18T08:10:50;6.70;;;4.30;;
6999;SDS011;3540;53.242;10.408;2023-09-18T08:13:16;4.57;;;3.95;;
6999;SDS011;3540;53.242;10.408;2023-09-18T08:15:42;4.78;;;4.22;;
6999;SDS011;3540;53.242;10.408;2023-09-18T08:18:08;4.50;;;4.10;;
6999;SDS011;3540;53.242;10.408;2023-09-18T08:20:35;4.35;;;3.95;;
6999;SDS011;3540;53.242;10.408;2023-09-18T08:23:05;4.20;;;3.80;;
6999;SDS011;3540;53.242;10.408;2023-09-18T08:25:31;5.15;;;3.88;;
6999;SDS011;3540;53.242;10.408;2023-09-18T08:27:57;4.82;;;3.90;;
6999;SDS011;3540;53.242;10.408;2023-09-18T08:30:23;6.00;;;3.88;;
6999;SDS011;3540;53.242;10.408;2023-09-18T08:32:49;4.90;;;4.20;;
6999;SDS011;3540;53.242;10.408;2023-09-18T08:35:15;4.45;;;4.05;;
6999;SDS011;3540;53.242;10.408;2023-09-18T08:37:41;4.40;;;4.00;;
6999;SDS011;3540;53.242;10.408;2023-09-18T08:40:07;6.65;;;4.03;;
6999;SDS011;3540;53.242;10.408;2023-09-18T08:42:39;6.57;;;4.20;;
6999;SDS011;3540;53.242;10.408;2023-09-18T08:45:10;4.80;;;3.95;;
6999;SDS011;3540;53.242;10.408;2023-09-18T08:47:47;5.78;;;4.18;;
6999;SDS011;3540;53.242;10.408;2023-09-18T08:50:14;4.60;;;4.25;;
6999;SDS011;3540;53.242;10.408;2023-09-18T08:52:40;4.20;;;3.80;;
6999;SDS011;3540;53.242;10.408;2023-09-18T08:55:06;6.95;;;3.90;;
6999;SDS011;3540;53.242;10.408;2023-09-18T08:57:33;6.53;;;3.92;;
6999;SDS011;3540;53.242;10.408;2023-09-18T09:00:01;5.07;;;4.50;;
6999;SDS011;3540;53.242;10.408;2023-09-18T09:02:31;6.25;;;4.25;;
6999;SDS011;3540;53.242;10.408;2023-09-18T09:04:57;5.97;;;3.80;;
6999;SDS011;3540;53.242;10.408;2023-09-18T09:07:22;4.82;;;4.32;;
6999;SDS011;3540;53.242;10.408;2023-09-18T09:09:48;8.07;;;4.60;;
6999;SDS011;3540;53.242;10.408;2023-09-18T09:12:14;4.65;;;4.20;;
6999;SDS011;3540;53.242;10.408;2023-09-18T09:14:40;4.82;;;4.35;;
6999;SDS011;3540;53.242;10.408;2023-09-18T09:17:06;4.40;;;4.00;;
6999;SDS011;3540;53.242;10.408;2023-09-18T09:19:33;5.13;;;4.32;;
6999;SDS011;3540;53.242;10.408;2023-09-18T09:22:07;5.07;;;4.22;;
6999;SDS011;3540;53.242;10.408;2023-09-18T09:27:03;5.05;;;4.32;;
6999;SDS011;3540;53.242;10.408;2023-09-18T09:29:29;7.57;;;4.88;;
6999;SDS011;3540;53.242;10.408;2023-09-18T09:31:55;4.93;;;4.53;;
6999;SDS011;3540;53.242;10.408;2023-09-18T09:34:25;6.45;;;4.47;;
6999;SDS011;3540;53.242;10.408;2023-09-18T09:36:55;4.93;;;4.43;;
6999;SDS011;3540;53.242;10.408;2023-09-18T09:39:21;6.53;;;4.35;;
6999;SDS011;3540;53.242;10.408;2023-09-18T09:41:53;5.80;;;4.40;;
6999;SDS011;3540;53.242;10.408;2023-09-18T09:44:19;5.57;;;4.45;;
6999;SDS011;3540;53.242;10.408;2023-09-18T09:46:46;4.88;;;4.45;;
6999;SDS011;3540;53.242;10.408;2023-09-18T09:49:13;5.78;;;4.30;;
6999;SDS011;3540;53.242;10.408;2023-09-18T09:51:40;6.38;;;4.57;;
6999;SDS011;3540;53.242;10.408;2023-09-18T09:54:07;6.78;;;4.15;;
6999;SDS011;3540;53.242;10.408;2023-09-18T09:56:43;5.32;;;4.10;;
6999;SDS011;3540;53.242;10.408;2023-09-18T09:59:09;6.65;;;4.60;;
6999;SDS011;3540;53.242;10.408;2023-09-18T10:01:36;4.97;;;4.07;;
6999;SDS011;3540;53.242;10.408;2023-09-18T10:04:04;7.30;;;4.40;;
6999;SDS011;3540;53.242;10.408;2023-09-18T10:06:33;7.65;;;4.03;;
6999;SDS011;3540;53.242;10.408;2023-09-18T10:09:02;9.48;;;4.78;;
6999;SDS011;3540;53.242;10.408;2023-09-18T10:11:31;8.43;;;4.65;;
6999;SDS011;3540;53.242;10.408;2023-09-18T10:16:59;7.07;;;4.20;;
6999;SDS011;3540;53.242;10.408;2023-09-18T10:19:32;9.18;;;5.10;;
6999;SDS011;3540;53.242;10.408;2023-09-18T10:24:54;6.05;;;4.18;;
6999;SDS011;3540;53.242;10.408;2023-09-18T10:27:25;5.90;;;4.22;;
6999;SDS011;3540;53.242;10.408;2023-09-18T10:29:53;8.82;;;4.10;;
6999;SDS011;3540;53.242;10.408;2023-09-18T10:32:19;9.00;;;4.07;;
6999;SDS011;3540;53.242;10.408;2023-09-18T10:34:47;6.90;;;4.10;;
6999;SDS011;3540;53.242;10.408;2023-09-18T10:37:13;7.35;;;4.28;;
6999;SDS011;3540;53.242;10.408;2023-09-18T10:39:40;4.55;;;4.00;;
6999;SDS011;3540;53.242;10.408;2023-09-18T10:42:09;6.78;;;3.88;;
6999;SDS011;3540;53.242;10.408;2023-09-18T10:44:35;5.13;;;4.05;;
6999;SDS011;3540;53.242;10.408;2023-09-18T10:47:02;9.30;;;3.90;;
6999;SDS011;3540;53.242;10.408;2023-09-18T10:49:30;8.95;;;4.28;;
6999;SDS011;3540;53.242;10.408;2023-09-18T10:51:56;7.18;;;4.03;;
6999;SDS011;3540;53.242;10.408;2023-09-18T10:54:24;8.05;;;3.83;;
6999;SDS011;3540;53.242;10.408;2023-09-18T10:56:51;5.80;;;3.75;;
6999;SDS011;3540;53.242;10.408;2023-09-18T10:59:17;8.02;;;3.80;;
6999;SDS011;3540;53.242;10.408;2023-09-18T11:01:43;8.00;;;4.30;;
6999;SDS011;3540;53.242;10.408;2023-09-18T11:04:09;6.78;;;5.18;;
6999;SDS011;3540;53.242;10.408;2023-09-18T11:09:26;5.28;;;3.70;;
6999;SDS011;3540;53.242;10.408;2023-09-18T11:20:16;11.23;;;4.18;;
6999;SDS011;3540;53.242;10.408;2023-09-18T11:22:46;7.28;;;4.05;;
6999;SDS011;3540;53.242;10.408;2023-09-18T11:25:38;8.35;;;3.80;;
6999;SDS011;3540;53.242;10.408;2023-09-18T11:28:06;11.32;;;4.07;;
6999;SDS011;3540;53.242;10.408;2023-09-18T11:30:34;10.27;;;3.92;;
6999;SDS011;3540;53.242;10.408;2023-09-18T11:33:04;7.80;;;3.70;;
6999;SDS011;3540;53.242;10.408;2023-09-18T11:35:31;8.15;;;3.80;;
6999;SDS011;3540;53.242;10.408;2023-09-18T11:38:09;9.07;;;3.85;;
6999;SDS011;3540;53.242;10.408;2023-09-18T11:40:36;9.63;;;3.70;;
6999;SDS011;3540;53.242;10.408;2023-09-18T11:45:50;10.35;;;3.67;;
6999;SDS011;3540;53.242;10.408;2023-09-18T11:48:18;9.13;;;4.05;;
6999;SDS011;3540;53.242;10.408;2023-09-18T11:50:44;10.35;;;3.88;;
6999;SDS011;3540;53.242;10.408;2023-09-18T11:53:14;9.45;;;3.40;;
6999;SDS011;3540;53.242;10.408;2023-09-18T11:55:40;6.95;;;3.67;;
6999;SDS011;3540;53.242;10.408;2023-09-18T11:58:07;7.43;;;3.80;;
6999;SDS011;3540;53.242;10.408;2023-09-18T12:00:34;8.80;;;3.90;;
6999;SDS011;3540;53.242;10.408;2023-09-18T12:03:13;12.15;;;3.63;;
6999;SDS011;3540;53.242;10.408;2023-09-18T12:05:43;7.75;;;3.25;;
6999;SDS011;3540;53.242;10.408;2023-09-18T12:08:10;9.90;;;2.97;;
6999;SDS011;3540;53.242;10.408;2023-09-18T12:10:36;8.23;;;3.13;;
6999;SDS011;3540;53.242;10.408;2023-09-18T12:13:06;7.88;;;3.28;;
6999;SDS011;3540;53.242;10.408;2023-09-18T12:15:36;8.05;;;3.13;;
6999;SDS011;3540;53.242;10.408;2023-09-18T12:18:05;6.63;;;3.33;;
6999;SDS011;3540;53.242;10.408;2023-09-18T12:20:32;10.05;;;3.00;;
6999;SDS011;3540;53.242;10.408;2023-09-18T12:22:59;8.70;;;3.17;;
6999;SDS011;3540;53.242;10.408;2023-09-18T12:25:25;7.28;;;3.08;;
6999;SDS011;3540;53.242;10.408;2023-09-18T12:27:51;6.57;;;2.72;;
6999;SDS011;3540;53.242;10.408;2023-09-18T12:30:18;10.88;;;2.70;;
6999;SDS011;3540;53.242;10.408;2023-09-18T12:32:45;9.75;;;2.90;;
6999;SDS011;3540;53.242;10.408;2023-09-18T12:35:13;8.80;;;2.75;;
6999;SDS011;3540;53.242;10.408;2023-09-18T12:37:39;8.98;;;2.55;;
6999;SDS011;3540;53.242;10.408;2023-09-18T12:40:06;8.20;;;2.80;;
6999;SDS011;3540;53.242;10.408;2023-09-18T12:42:53;6.90;;;2.78;;
6999;SDS011;3540;53.242;10.408;2023-09-18T12:45:20;7.35;;;2.78;;
6999;SDS011;3540;53.242;10.408;2023-09-18T12:47:47;8.30;;;2.70;;
6999;SDS011;3540;53.242;10.408;2023-09-18T12:50:13;11.45;;;2.67;;
6999;SDS011;3540;53.242;10.408;2023-09-18T12:52:39;10.13;;;2.88;;
6999;SDS011;3540;53.242;10.408;2023-09-18T12:55:05;7.32;;;2.67;;
6999;SDS011;3540;53.242;10.408;2023-09-18T12:57:32;4.13;;;2.28;;
6999;SDS011;3540;53.242;10.408;2023-09-18T12:59:58;9.10;;;2.70;;
6999;SDS011;3540;53.242;10.408;2023-09-18T13:02:24;7.05;;;2.92;;
6999;SDS011;3540;53.242;10.408;2023-09-18T13:04:53;6.38;;;2.47;;
6999;SDS011;3540;53.242;10.408;2023-09-18T13:07:20;9.30;;;2.70;;
6999;SDS011;3540;53.242;10.408;2023-09-18T13:10:00;6.68;;;3.10;;
6999;SDS011;3540;53.242;10.408;2023-09-18T13:12:39;11.95;;;2.45;;
6999;SDS011;3540;53.242;10.408;2023-09-18T13:15:06;9.93;;;2.83;;
6999;SDS011;3540;53.242;10.408;2023-09-18T13:17:44;8.77;;;2.50;;
6999;SDS011;3540;53.242;10.408;2023-09-18T13:20:17;9.35;;;2.70;;
6999;SDS011;3540;53.242;10.408;2023-09-18T13:22:53;11.15;;;2.50;;
6999;SDS011;3540;53.242;10.408;2023-09-18T13:25:33;4.50;;;2.28;;
6999;SDS011;3540;53.242;10.408;2023-09-18T13:28:04;4.65;;;2.35;;
6999;SDS011;3540;53.242;10.408;2023-09-18T13:30:31;9.02;;;2.25;;
6999;SDS011;3540;53.242;10.408;2023-09-18T13:33:04;6.47;;;2.10;;
6999;SDS011;3540;53.242;10.408;2023-09-18T13:35:36;8.73;;;2.40;;
6999;SDS011;3540;53.242;10.408;2023-09-18T13:38:04;11.05;;;2.22;;
6999;SDS011;3540;53.242;10.408;2023-09-18T13:40:31;6.88;;;2.10;;
6999;SDS011;3540;53.242;10.408;2023-09-18T13:42:58;10.65;;;2.10;;
6999;SDS011;3540;53.242;10.408;2023-09-18T13:45:24;6.43;;;2.40;;
6999;SDS011;3540;53.242;10.408;2023-09-18T13:47:50;4.22;;;2.05;;
6999;SDS011;3540;53.242;10.408;2023-09-18T13:50:15;5.22;;;2.40;;
6999;SDS011;3540;53.242;10.408;2023-09-18T13:52:41;9.02;;;2.33;;
6999;SDS011;3540;53.242;10.408;2023-09-18T13:55:07;7.13;;;2.30;;
6999;SDS011;3540;53.242;10.408;2023-09-18T13:57:33;9.20;;;2.20;;
6999;SDS011;3540;53.242;10.408;2023-09-18T14:00:00;7.30;;;2.33;;
6999;SDS011;3540;53.242;10.408;2023-09-18T14:02:30;4.43;;;2.22;;
6999;SDS011;3540;53.242;10.408;2023-09-18T14:04:56;7.13;;;2.40;;
6999;SDS011;3540;53.242;10.408;2023-09-18T14:07:21;7.88;;;2.72;;
6999;SDS011;3540;53.242;10.408;2023-09-18T14:09:47;7.20;;;2.20;;
6999;SDS011;3540;53.242;10.408;2023-09-18T14:12:17;6.53;;;2.30;;
6999;SDS011;3540;53.242;10.408;2023-09-18T14:14:43;8.43;;;2.42;;
6999;SDS011;3540;53.242;10.408;2023-09-18T14:17:12;8.45;;;2.13;;
6999;SDS011;3540;53.242;10.408;2023-09-18T14:19:37;6.85;;;2.40;;
6999;SDS011;3540;53.242;10.408;2023-09-18T14:22:06;5.65;;;2.10;;
6999;SDS011;3540;53.242;10.408;2023-09-18T14:24:33;4.55;;;1.90;;
6999;SDS011;3540;53.242;10.408;2023-09-18T14:27:02;5.90;;;2.33;;
6999;SDS011;3540;53.242;10.408;2023-09-18T14:29:29;8.73;;;2.30;;
6999;SDS011;3540;53.242;10.408;2023-09-18T14:32:04;10.65;;;2.40;;
6999;SDS011;3540;53.242;10.408;2023-09-18T14:34:31;7.20;;;2.13;;
6999;SDS011;3540;53.242;10.408;2023-09-18T14:37:00;8.60;;;2.20;;
6999;SDS011;3540;53.242;10.408;2023-09-18T14:39:30;5.38;;;2.28;;
6999;SDS011;3540;53.242;10.408;2023-09-18T14:41:57;5.15;;;2.20;;
6999;SDS011;3540;53.242;10.408;2023-09-18T14:44:24;9.98;;;2.33;;
6999;SDS011;3540;53.242;10.408;2023-09-18T14:46:51;9.32;;;2.08;;
6999;SDS011;3540;53.242;10.408;2023-09-18T14:49:18;5.30;;;2.15;;
6999;SDS011;3540;53.242;10.408;2023-09-18T14:51:43;9.50;;;2.65;;
6999;SDS011;3540;53.242;10.408;2023-09-18T14:54:09;5.85;;;2.42;;
6999;SDS011;3540;53.242;10.408;2023-09-18T14:56:35;3.80;;;2.00;;
6999;SDS011;3540;53.242;10.408;2023-09-18T14:59:02;7.70;;;2.20;;
6999;SDS011;3540;53.242;10.408;2023-09-18T15:01:28;8.02;;;2.08;;
6999;SDS011;3540;53.242;10.408;2023-09-18T15:03:54;5.68;;;2.58;;
6999;SDS011;3540;53.242;10.408;2023-09-18T15:06:20;8.38;;;2.47;;
6999;SDS011;3540;53.242;10.408;2023-09-18T15:08:45;5.68;;;2.40;;
6999;SDS011;3540;53.242;10.408;2023-09-18T15:11:11;6.78;;;2.30;;
6999;SDS011;3540;53.242;10.408;2023-09-18T15:13:38;9.85;;;2.50;;
6999;SDS011;3540;53.242;10.408;2023-09-18T15:16:03;8.27;;;2.35;;
6999;SDS011;3540;53.242;10.408;2023-09-18T15:18:31;5.38;;;2.30;;
6999;SDS011;3540;53.242;10.408;2023-09-18T15:20:56;6.03;;;2.80;;
6999;SDS011;3540;53.242;10.408;2023-09-18T15:23:25;6.45;;;2.50;;